createdAt,value
2022-10-16T00:00:38.251Z,16.88
2022-10-16T00:03:05.597Z,16.85
2022-10-16T00:05:32.454Z,16.84
2022-10-16T00:07:59.067Z,16.81
2022-10-16T00:10:25.639Z,16.80
2022-10-16T00:12:52.138Z,16.77
2022-10-16T00:15:18.813Z,16.75
2022-10-16T00:17:45.232Z,16.73
2022-10-16T00:20:11.643Z,16.72
2022-10-16T00:22:38.096Z,16.70
2022-10-16T00:25:04.794Z,16.69
2022-10-16T00:27:31.199Z,16.67
2022-10-16T00:32:29.142Z,16.64
2022-10-16T00:34:55.656Z,16.63
2022-10-16T00:37:22.246Z,16.63
2022-10-16T00:39:48.784Z,16.62
2022-10-16T00:42:19.314Z,16.59
2022-10-16T00:44:53.491Z,16.58
2022-10-16T00:47:24.081Z,16.55
2022-10-16T00:49:53.036Z,16.52
2022-10-16T00:52:20.267Z,16.51
2022-10-16T00:54:47.676Z,16.48
2022-10-16T00:59:46.109Z,16.44
2022-10-16T01:02:15.282Z,16.42
2022-10-16T01:04:45.131Z,16.37
2022-10-16T01:07:30.558Z,16.34
2022-10-16T01:10:22.197Z,16.30
2022-10-16T01:12:51.776Z,16.28
2022-10-16T01:18:50.854Z,16.24
2022-10-16T01:21:23.769Z,16.21
2022-10-16T01:24:10.399Z,16.21
2022-10-16T01:27:10.746Z,16.19
2022-10-16T01:30:11.699Z,16.19
2022-10-16T01:32:43.373Z,16.18
2022-10-16T01:35:13.278Z,16.18
2022-10-16T01:37:46.881Z,16.17
2022-10-16T01:40:16.165Z,16.16
2022-10-16T01:42:51.400Z,16.15
2022-10-16T01:45:19.235Z,16.14
2022-10-16T01:47:46.696Z,16.13
2022-10-16T01:50:14.995Z,16.12
2022-10-16T01:52:44.622Z,16.12
2022-10-16T01:55:14.459Z,16.11
2022-10-16T01:57:42.687Z,16.10
2022-10-16T02:00:11.823Z,16.10
2022-10-16T02:02:41.114Z,16.07
2022-10-16T02:05:17.092Z,16.07
2022-10-16T02:07:43.791Z,16.05
2022-10-16T02:10:10.677Z,16.05
2022-10-16T02:12:40.496Z,16.05
2022-10-16T02:15:07.715Z,16.04
2022-10-16T02:17:34.476Z,16.04
2022-10-16T02:20:01.365Z,16.02
2022-10-16T02:22:31.445Z,16.00
2022-10-16T02:25:00.739Z,15.99
2022-10-16T02:27:40.183Z,15.97
2022-10-16T02:30:09.330Z,15.95
2022-10-16T02:32:38.229Z,15.95
2022-10-16T02:35:05.568Z,15.95
2022-10-16T02:37:32.332Z,15.93
2022-10-16T02:39:59.323Z,15.93
2022-10-16T02:42:31.016Z,15.93
2022-10-16T02:44:57.484Z,15.92
2022-10-16T02:47:23.915Z,15.91
2022-10-16T02:49:50.369Z,15.91
2022-10-16T02:52:16.940Z,15.90
2022-10-16T02:54:43.360Z,15.91
2022-10-16T02:57:09.794Z,15.91
2022-10-16T02:59:36.247Z,15.91
2022-10-16T03:02:02.670Z,15.91
2022-10-16T03:04:29.115Z,15.90
2022-10-16T03:06:55.564Z,15.91
2022-10-16T03:09:21.993Z,15.91
2022-10-16T03:11:48.479Z,15.91
2022-10-16T03:14:14.931Z,15.89
2022-10-16T03:16:41.395Z,15.87
2022-10-16T03:19:07.990Z,15.87
2022-10-16T03:21:34.465Z,15.88
2022-10-16T03:24:00.957Z,15.87
2022-10-16T03:26:27.413Z,15.88
2022-10-16T03:28:53.939Z,15.87
2022-10-16T03:31:20.424Z,15.88
2022-10-16T03:33:46.872Z,15.86
2022-10-16T03:36:13.564Z,15.86
2022-10-16T03:38:39.997Z,15.86
2022-10-16T03:41:08.704Z,15.86
2022-10-16T03:43:35.176Z,15.85
2022-10-16T03:46:01.685Z,15.85
2022-10-16T03:48:28.300Z,15.84
2022-10-16T03:50:55.847Z,15.84
2022-10-16T03:53:22.494Z,15.83
2022-10-16T03:55:49.054Z,15.83
2022-10-16T03:58:15.543Z,15.82
2022-10-16T04:00:46.371Z,15.81
2022-10-16T04:03:12.946Z,15.81
2022-10-16T04:05:39.891Z,15.79
2022-10-16T04:08:06.591Z,15.79
2022-10-16T04:10:33.125Z,15.78
2022-10-16T04:12:59.599Z,15.77
2022-10-16T04:15:26.347Z,15.77
2022-10-16T04:17:53.157Z,15.78
2022-10-16T04:20:19.802Z,15.79
2022-10-16T04:22:46.282Z,15.78
2022-10-16T04:25:12.883Z,15.79
2022-10-16T04:27:42.236Z,15.79
2022-10-16T04:30:12.037Z,15.78
2022-10-16T04:32:38.501Z,15.77
2022-10-16T04:35:05.312Z,15.77
2022-10-16T04:37:31.780Z,15.77
2022-10-16T04:39:58.334Z,15.76
2022-10-16T04:42:24.790Z,15.77
2022-10-16T04:44:51.400Z,15.76
2022-10-16T04:47:17.925Z,15.76
2022-10-16T04:49:44.488Z,15.76
2022-10-16T04:52:11.138Z,15.75
2022-10-16T04:54:37.791Z,15.75
2022-10-16T04:57:05.831Z,15.73
2022-10-16T04:59:32.369Z,15.73
2022-10-16T05:01:58.932Z,15.70
2022-10-16T05:04:25.461Z,15.67
2022-10-16T05:06:51.987Z,15.66
2022-10-16T05:09:18.736Z,15.61
2022-10-16T05:11:45.262Z,15.61
2022-10-16T05:16:38.303Z,15.57
2022-10-16T05:19:26.420Z,15.53
2022-10-16T05:21:51.513Z,15.49
2022-10-16T05:24:18.092Z,15.47
2022-10-16T05:26:55.207Z,15.45
2022-10-16T05:29:23.517Z,15.43
2022-10-16T05:31:54.170Z,15.42
2022-10-16T05:34:21.836Z,15.40
2022-10-16T05:36:48.377Z,15.39
2022-10-16T05:39:16.345Z,15.37
2022-10-16T05:41:43.629Z,15.36
2022-10-16T05:44:11.317Z,15.34
2022-10-16T05:46:37.880Z,15.32
2022-10-16T05:49:04.516Z,15.29
2022-10-16T05:51:31.172Z,15.28
2022-10-16T05:53:57.825Z,15.27
2022-10-16T05:56:24.381Z,15.28
2022-10-16T05:58:50.977Z,15.29
2022-10-16T06:01:19.600Z,15.32
2022-10-16T06:03:46.310Z,15.32
2022-10-16T06:06:15.173Z,15.33
2022-10-16T06:08:42.949Z,15.36
2022-10-16T06:11:12.058Z,15.38
2022-10-16T06:13:39.917Z,15.40
2022-10-16T06:16:06.979Z,15.42
2022-10-16T06:18:33.523Z,15.42
2022-10-16T06:21:00.116Z,15.45
2022-10-16T06:23:29.591Z,15.48
2022-10-16T06:26:05.499Z,15.49
2022-10-16T06:28:32.186Z,15.51
2022-10-16T06:31:05.619Z,15.51
2022-10-16T06:33:35.425Z,15.52
2022-10-16T06:36:15.125Z,15.52
2022-10-16T06:38:42.091Z,15.54
2022-10-16T06:41:10.691Z,15.56
2022-10-16T06:43:37.328Z,15.57
2022-10-16T06:46:05.891Z,15.59
2022-10-16T06:48:32.437Z,15.59
2022-10-16T06:51:19.515Z,15.61
2022-10-16T06:54:05.394Z,15.63
2022-10-16T06:56:33.183Z,15.66
2022-10-16T06:59:00.233Z,15.68
2022-10-16T07:01:27.356Z,15.69
2022-10-16T07:03:54.271Z,15.68
2022-10-16T07:06:22.952Z,15.70
2022-10-16T07:08:49.639Z,15.72
2022-10-16T07:11:18.583Z,15.75
2022-10-16T07:13:50.825Z,15.76
2022-10-16T07:16:22.724Z,15.79
2022-10-16T07:18:50.284Z,15.81
2022-10-16T07:21:20.418Z,15.85
2022-10-16T07:23:51.544Z,15.88
2022-10-16T07:26:18.362Z,15.93
2022-10-16T07:28:45.204Z,15.97
2022-10-16T07:31:14.376Z,16.02
2022-10-16T07:33:42.958Z,16.06
2022-10-16T07:36:12.478Z,16.10
2022-10-16T07:38:43.513Z,16.14
2022-10-16T07:41:14.150Z,16.18
2022-10-16T07:43:41.136Z,16.20
2022-10-16T07:46:07.770Z,16.22
2022-10-16T07:48:35.410Z,16.24
2022-10-16T07:51:04.537Z,16.26
2022-10-16T07:53:31.470Z,16.27
2022-10-16T07:56:05.067Z,16.27
2022-10-16T07:58:32.015Z,16.27
2022-10-16T08:00:59.110Z,16.26
2022-10-16T08:03:26.568Z,16.26
2022-10-16T08:05:53.134Z,16.28
2022-10-16T08:08:20.203Z,16.28
2022-10-16T08:10:46.857Z,16.29
2022-10-16T08:13:16.568Z,16.29
2022-10-16T08:15:44.125Z,16.34
2022-10-16T08:18:12.372Z,16.42
2022-10-16T08:20:39.919Z,16.47
2022-10-16T08:23:07.862Z,16.54
2022-10-16T08:25:38.373Z,16.62
2022-10-16T08:28:30.301Z,16.71
2022-10-16T08:30:57.990Z,16.80
2022-10-16T08:33:27.126Z,16.90
2022-10-16T08:35:56.879Z,16.99
2022-10-16T08:38:23.520Z,17.06
2022-10-16T08:40:52.872Z,17.12
2022-10-16T08:43:29.954Z,17.18
2022-10-16T08:46:20.750Z,17.26
2022-10-16T08:48:49.460Z,17.31
2022-10-16T08:51:49.422Z,17.36
2022-10-16T08:54:41.821Z,17.44
2022-10-16T08:57:13.407Z,17.45
2022-10-16T08:59:40.000Z,17.50
2022-10-16T09:02:22.102Z,17.59
2022-10-16T09:04:58.080Z,17.70
2022-10-16T09:07:36.077Z,17.77
2022-10-16T09:10:25.899Z,17.85
2022-10-16T09:13:19.190Z,17.88
2022-10-16T09:15:57.261Z,17.84
2022-10-16T09:18:46.620Z,17.89
2022-10-16T09:21:28.890Z,17.93
2022-10-16T09:23:58.009Z,17.99
2022-10-16T09:26:24.963Z,18.04
2022-10-16T09:28:53.624Z,18.11
2022-10-16T09:31:22.022Z,18.20
2022-10-16T09:33:54.280Z,18.25
2022-10-16T09:36:21.896Z,18.31
2022-10-16T09:38:48.801Z,18.37
2022-10-16T09:41:20.398Z,18.42
2022-10-16T09:43:46.983Z,18.47
2022-10-16T09:46:35.797Z,18.51
2022-10-16T09:49:23.658Z,18.54
2022-10-16T09:51:50.720Z,18.58
2022-10-16T09:54:21.907Z,18.67
2022-10-16T09:56:53.318Z,18.74
2022-10-16T09:59:22.937Z,18.81
2022-10-16T10:01:54.387Z,18.92
2022-10-16T10:04:22.639Z,18.97
2022-10-16T10:06:52.380Z,19.03
2022-10-16T10:09:22.332Z,19.09
2022-10-16T10:11:56.183Z,19.10
2022-10-16T10:14:42.463Z,19.12
2022-10-16T10:17:21.057Z,19.15
2022-10-16T10:19:52.012Z,19.15
2022-10-16T10:22:24.661Z,19.16
2022-10-16T10:25:00.520Z,19.14
2022-10-16T10:27:50.386Z,19.15
2022-10-16T10:30:45.765Z,19.17
2022-10-16T10:33:39.758Z,19.15
2022-10-16T10:36:35.864Z,19.16
2022-10-16T10:39:50.127Z,19.13
2022-10-16T10:42:33.411Z,19.16
2022-10-16T10:45:27.049Z,19.13
2022-10-16T10:48:13.298Z,19.10
2022-10-16T10:50:44.538Z,19.10
2022-10-16T10:53:17.201Z,19.09
2022-10-16T10:55:52.952Z,19.11
2022-10-16T10:58:25.574Z,19.15
2022-10-16T11:00:52.108Z,19.19
2022-10-16T11:03:58.179Z,19.22
2022-10-16T11:06:28.350Z,19.27
2022-10-16T11:09:02.150Z,19.33
2022-10-16T11:11:31.678Z,19.37
2022-10-16T11:14:05.692Z,19.41
2022-10-16T11:16:41.355Z,19.47
2022-10-16T11:19:31.050Z,19.49
2022-10-16T11:22:05.992Z,19.50
2022-10-16T11:25:29.396Z,19.52
2022-10-16T11:28:22.067Z,19.53
2022-10-16T11:31:05.068Z,19.57
2022-10-16T11:33:42.503Z,19.59
2022-10-16T11:36:20.485Z,19.66
2022-10-16T11:38:56.427Z,19.67
2022-10-16T11:41:28.604Z,19.76
2022-10-16T11:44:04.522Z,19.88
2022-10-16T11:46:32.257Z,19.89
2022-10-16T11:49:07.838Z,19.89
2022-10-16T11:51:40.542Z,19.95
2022-10-16T11:54:29.232Z,19.99
2022-10-16T11:57:04.916Z,20.03
2022-10-16T11:59:45.719Z,20.06
2022-10-16T12:02:40.553Z,20.08
2022-10-16T12:05:22.049Z,20.04
2022-10-16T12:08:01.889Z,20.07
2022-10-16T12:10:32.702Z,20.00
2022-10-16T12:12:59.371Z,19.99
2022-10-16T12:18:25.893Z,19.87
2022-10-16T12:21:05.478Z,19.85
2022-10-16T12:23:35.729Z,19.79
2022-10-16T12:26:03.831Z,19.78
2022-10-16T12:28:32.936Z,19.77
2022-10-16T12:31:07.905Z,19.76
2022-10-16T12:33:36.465Z,19.79
2022-10-16T12:36:31.548Z,19.84
2022-10-16T12:38:58.510Z,19.90
2022-10-16T12:41:33.199Z,19.91
2022-10-16T12:44:04.644Z,19.90
2022-10-16T12:46:31.230Z,19.95
2022-10-16T12:49:13.089Z,19.97
2022-10-16T12:51:40.257Z,19.97
2022-10-16T12:54:18.847Z,20.00
2022-10-16T12:56:48.455Z,19.97
2022-10-16T12:59:30.157Z,20.01
2022-10-16T13:02:40.690Z,20.08
2022-10-16T13:05:15.557Z,20.03
2022-10-16T13:08:02.720Z,20.10
2022-10-16T13:10:42.131Z,20.12
2022-10-16T13:13:33.120Z,20.13
2022-10-16T13:16:09.104Z,20.16
2022-10-16T13:18:55.126Z,20.19
2022-10-16T13:21:47.419Z,20.15
2022-10-16T13:24:26.539Z,20.20
2022-10-16T13:27:30.765Z,20.19
2022-10-16T13:30:19.680Z,20.21
2022-10-16T13:35:23.962Z,20.22
2022-10-16T13:37:51.398Z,20.23
2022-10-16T13:40:22.894Z,20.23
2022-10-16T13:42:50.583Z,20.22
2022-10-16T13:45:28.860Z,20.23
2022-10-16T13:48:06.387Z,20.26
2022-10-16T13:50:33.061Z,20.28
2022-10-16T13:53:07.260Z,20.28
2022-10-16T13:55:34.344Z,20.29
2022-10-16T13:58:14.465Z,20.29
2022-10-16T14:00:42.160Z,20.31
2022-10-16T14:03:14.869Z,20.33
2022-10-16T14:05:50.297Z,20.35
2022-10-16T14:08:17.373Z,20.32
2022-10-16T14:10:44.335Z,20.33
2022-10-16T14:13:18.108Z,20.33
2022-10-16T14:15:47.825Z,20.33
2022-10-16T14:18:23.124Z,20.31
2022-10-16T14:20:50.808Z,20.33
2022-10-16T14:23:24.963Z,20.34
2022-10-16T14:25:51.656Z,20.35
2022-10-16T14:28:21.213Z,20.31
2022-10-16T14:30:55.538Z,20.32
2022-10-16T14:33:42.278Z,20.33
2022-10-16T14:36:14.692Z,20.33
2022-10-16T14:38:44.385Z,20.34
2022-10-16T14:41:11.128Z,20.34
2022-10-16T14:43:39.412Z,20.35
2022-10-16T14:46:14.395Z,20.33
2022-10-16T14:48:47.089Z,20.32
2022-10-16T14:51:18.134Z,20.30
2022-10-16T14:53:44.845Z,20.26
2022-10-16T14:56:33.299Z,20.27
2022-10-16T14:59:00.652Z,20.22
2022-10-16T15:01:27.343Z,20.22
2022-10-16T15:03:55.676Z,20.22
2022-10-16T15:06:23.339Z,20.20
2022-10-16T15:08:50.205Z,20.20
2022-10-16T15:11:20.559Z,20.21
2022-10-16T15:13:47.420Z,20.21
2022-10-16T15:16:16.350Z,20.20
2022-10-16T15:18:43.438Z,20.20
2022-10-16T15:21:37.314Z,20.18
2022-10-16T15:24:03.959Z,20.16
2022-10-16T15:26:31.460Z,20.12
2022-10-16T15:28:58.466Z,20.11
2022-10-16T15:31:25.313Z,20.08
2022-10-16T15:33:55.344Z,20.06
2022-10-16T15:36:29.884Z,20.03
2022-10-16T15:38:57.101Z,20.00
2022-10-16T15:41:24.393Z,19.96
2022-10-16T15:43:52.250Z,19.95
2022-10-16T15:46:20.811Z,19.92
2022-10-16T15:48:49.174Z,19.89
2022-10-16T15:51:15.917Z,19.85
2022-10-16T15:53:42.677Z,19.81
2022-10-16T15:56:10.719Z,19.77
2022-10-16T15:58:37.648Z,19.75
2022-10-16T16:01:05.423Z,19.70
2022-10-16T16:03:33.375Z,19.66
2022-10-16T16:06:05.234Z,19.60
2022-10-16T16:08:31.961Z,19.53
2022-10-16T16:11:00.453Z,19.46
2022-10-16T16:13:35.207Z,19.39
2022-10-16T16:16:04.585Z,19.30
2022-10-16T16:18:31.187Z,19.22
2022-10-16T16:20:58.064Z,19.17
2022-10-16T16:23:25.658Z,19.09
2022-10-16T16:26:07.479Z,19.01
2022-10-16T16:28:34.253Z,18.92
2022-10-16T16:31:00.725Z,18.85
2022-10-16T16:33:27.278Z,18.76
2022-10-16T16:36:00.641Z,18.67
2022-10-16T16:38:27.709Z,18.58
2022-10-16T16:40:56.340Z,18.51
2022-10-16T16:43:27.388Z,18.44
2022-10-16T16:45:54.260Z,18.37
2022-10-16T16:48:21.285Z,18.32
2022-10-16T16:50:47.853Z,18.24
2022-10-16T16:53:14.381Z,18.18
2022-10-16T16:55:40.847Z,18.10
2022-10-16T16:58:07.298Z,18.02
2022-10-16T17:00:33.687Z,17.96
2022-10-16T17:03:00.303Z,17.89
2022-10-16T17:05:26.963Z,17.83
2022-10-16T17:07:53.385Z,17.77
2022-10-16T17:10:19.790Z,17.70
2022-10-16T17:12:46.336Z,17.66
2022-10-16T17:15:12.783Z,17.59
2022-10-16T17:17:39.257Z,17.52
2022-10-16T17:20:06.069Z,17.47
2022-10-16T17:22:32.499Z,17.41
2022-10-16T17:24:58.911Z,17.36
2022-10-16T17:27:25.412Z,17.31
2022-10-16T17:29:52.460Z,17.25
2022-10-16T17:32:20.757Z,17.21
2022-10-16T17:34:47.336Z,17.16
2022-10-16T17:37:15.748Z,17.12
2022-10-16T17:39:44.530Z,17.06
2022-10-16T17:42:10.950Z,17.02
2022-10-16T17:44:37.413Z,16.96
2022-10-16T17:47:03.813Z,16.88
2022-10-16T17:49:30.411Z,16.82
2022-10-16T17:51:56.967Z,16.77
2022-10-16T17:54:23.479Z,16.71
2022-10-16T17:56:49.923Z,16.65
2022-10-16T17:59:16.545Z,16.60
2022-10-16T18:01:45.864Z,16.56
2022-10-16T18:04:15.278Z,16.51
2022-10-16T18:06:43.820Z,16.49
2022-10-16T18:09:12.368Z,16.45
2022-10-16T18:11:38.816Z,16.41
2022-10-16T18:14:05.498Z,16.39
2022-10-16T18:16:32.634Z,16.36
2022-10-16T18:18:59.576Z,16.34
2022-10-16T18:21:29.910Z,16.32
2022-10-16T18:23:58.223Z,16.30
2022-10-16T18:26:24.906Z,16.29
2022-10-16T18:28:56.463Z,16.28
2022-10-16T18:31:23.642Z,16.28
2022-10-16T18:33:53.032Z,16.28
2022-10-16T18:36:22.408Z,16.26
2022-10-16T18:38:49.281Z,16.25
2022-10-16T18:41:15.770Z,16.24
2022-10-16T18:43:42.238Z,16.23
2022-10-16T18:46:11.805Z,16.20
2022-10-16T18:48:40.156Z,16.21
2022-10-16T18:51:18.649Z,16.20
2022-10-16T18:53:47.889Z,16.18
2022-10-16T18:56:15.148Z,16.17
2022-10-16T18:58:43.116Z,16.15
2022-10-16T19:01:11.719Z,16.14
2022-10-16T19:03:43.241Z,16.13
2022-10-16T19:06:12.300Z,16.11
2022-10-16T19:08:39.199Z,16.10
2022-10-16T19:11:07.649Z,16.10
2022-10-16T19:13:34.338Z,16.08
2022-10-16T19:16:19.491Z,16.08
2022-10-16T19:18:47.686Z,16.05
2022-10-16T19:21:15.150Z,16.03
2022-10-16T19:23:42.265Z,16.00
2022-10-16T19:26:14.814Z,16.00
2022-10-16T19:28:41.598Z,15.97
2022-10-16T19:31:11.607Z,15.95
2022-10-16T19:33:38.538Z,15.92
2022-10-16T19:36:14.080Z,15.89
2022-10-16T19:38:41.191Z,15.88
2022-10-16T19:41:12.639Z,15.85
2022-10-16T19:43:39.164Z,15.82
2022-10-16T19:46:14.293Z,15.81
2022-10-16T19:48:41.207Z,15.79
2022-10-16T19:51:11.873Z,15.77
2022-10-16T19:53:38.306Z,15.77
2022-10-16T19:56:16.135Z,15.78
2022-10-16T19:58:43.363Z,15.78
2022-10-16T20:01:09.880Z,15.75
2022-10-16T20:03:36.491Z,15.74
2022-10-16T20:06:06.899Z,15.74
2022-10-16T20:08:34.590Z,15.75
2022-10-16T20:11:01.546Z,15.76
2022-10-16T20:13:28.290Z,15.76
2022-10-16T20:15:54.732Z,15.77
2022-10-16T20:18:21.587Z,15.76
2022-10-16T20:20:50.906Z,15.76
2022-10-16T20:23:18.526Z,15.77
2022-10-16T20:25:45.602Z,15.76
2022-10-16T20:28:18.232Z,15.75
2022-10-16T20:30:46.623Z,15.74
2022-10-16T20:33:13.741Z,15.74
2022-10-16T20:35:42.462Z,15.72
2022-10-16T20:38:09.334Z,15.71
2022-10-16T20:40:39.268Z,15.68
2022-10-16T20:43:06.338Z,15.68
2022-10-16T20:45:32.996Z,15.64
2022-10-16T20:47:59.957Z,15.65
2022-10-16T20:50:32.660Z,15.62
2022-10-16T20:53:00.223Z,15.61
2022-10-16T20:55:27.227Z,15.61
2022-10-16T20:57:53.947Z,15.60
2022-10-16T21:00:20.438Z,15.61
2022-10-16T21:02:50.332Z,15.62
2022-10-16T21:05:16.945Z,15.62
2022-10-16T21:07:43.462Z,15.61
2022-10-16T21:10:10.164Z,15.63
2022-10-16T21:12:36.589Z,15.62
2022-10-16T21:15:14.498Z,15.61
2022-10-16T21:17:41.448Z,15.60
2022-10-16T21:20:08.322Z,15.62
2022-10-16T21:22:34.729Z,15.62
2022-10-16T21:25:01.134Z,15.61
2022-10-16T21:27:27.531Z,15.60
2022-10-16T21:29:54.347Z,15.59
2022-10-16T21:32:23.608Z,15.59
2022-10-16T21:34:50.017Z,15.60
2022-10-16T21:37:16.455Z,15.60
2022-10-16T21:39:42.924Z,15.59
2022-10-16T21:42:09.388Z,15.61
2022-10-16T21:44:35.903Z,15.61
2022-10-16T21:47:02.321Z,15.61
2022-10-16T21:49:28.884Z,15.63
2022-10-16T21:51:55.344Z,15.65
2022-10-16T21:54:23.713Z,15.66
2022-10-16T21:56:50.427Z,15.67
2022-10-16T21:59:16.944Z,15.72
2022-10-16T22:01:44.047Z,15.73
2022-10-16T22:04:11.817Z,15.76
2022-10-16T22:06:38.702Z,15.79
2022-10-16T22:09:05.225Z,15.80
2022-10-16T22:11:37.756Z,15.82
2022-10-16T22:14:05.755Z,15.83
2022-10-16T22:16:32.502Z,15.84
2022-10-16T22:18:59.797Z,15.86
2022-10-16T22:21:28.412Z,15.87
2022-10-16T22:23:55.111Z,15.88
2022-10-16T22:26:21.706Z,15.90
2022-10-16T22:28:48.208Z,15.90
2022-10-16T22:31:15.121Z,15.89
2022-10-16T22:33:42.161Z,15.88
2022-10-16T22:36:11.638Z,15.86
2022-10-16T22:38:38.310Z,15.85
2022-10-16T22:41:06.452Z,15.82
2022-10-16T22:43:36.296Z,15.79
2022-10-16T22:46:04.576Z,15.77
2022-10-16T22:48:30.997Z,15.76
2022-10-16T22:50:57.426Z,15.73
2022-10-16T22:53:23.935Z,15.70
2022-10-16T22:55:50.424Z,15.67
2022-10-16T22:58:16.888Z,15.63
2022-10-16T23:00:44.505Z,15.63
2022-10-16T23:03:11.495Z,15.60
2022-10-16T23:05:39.140Z,15.59
2022-10-16T23:08:06.039Z,15.55
2022-10-16T23:10:32.916Z,15.54
2022-10-16T23:12:59.318Z,15.52
2022-10-16T23:15:25.750Z,15.51
2022-10-16T23:17:52.164Z,15.49
2022-10-16T23:20:18.582Z,15.51
2022-10-16T23:22:45.032Z,15.49
2022-10-16T23:25:11.526Z,15.49
2022-10-16T23:27:37.939Z,15.48
2022-10-16T23:30:06.820Z,15.47
2022-10-16T23:32:33.872Z,15.47
2022-10-16T23:35:00.366Z,15.47
2022-10-16T23:37:27.035Z,15.47
2022-10-16T23:39:54.045Z,15.47
2022-10-16T23:42:20.540Z,15.46
2022-10-16T23:44:47.031Z,15.47
2022-10-16T23:47:13.447Z,15.46
2022-10-16T23:49:39.857Z,15.45
2022-10-16T23:52:07.141Z,15.44
2022-10-16T23:54:33.584Z,15.42
2022-10-16T23:57:00.181Z,15.41
2022-10-16T23:59:26.613Z,15.37
